Time;durP1;ratioP1;P1;durP2;ratioP2;P2;SDS_P1;SDS_P2;PMS_P1;PMS_P2;Temp;Humidity;BMP_temperature;BMP_pressure;BME280_temperature;BME280_humidity;BME280_pressure;Samples;Min_cycle;Max_cycle;Signal;HPM_P1;HPM_P2
2021/08/17 00:01:57;;;;;;;1.15;1.10;;;20.80;99.90;;;;;;5049519;28;20662;-72
2021/08/17 00:04:28;;;;;;;1.25;1.15;;;20.80;99.90;;;;;;5049320;28;20665;-72
2021/08/17 00:06:55;;;;;;;1.42;1.33;;;20.70;99.90;;;;;;5048417;28;20247;-72
2021/08/17 00:09:22;;;;;;;1.58;1.48;;;20.70;99.90;;;;;;5047684;28;20198;-73
2021/08/17 00:11:49;;;;;;;1.10;1.10;;;20.70;99.90;;;;;;5049850;28;20229;-72
2021/08/17 00:14:16;;;;;;;1.23;1.23;;;20.70;99.90;;;;;;5047355;28;20203;-72
2021/08/17 00:16:43;;;;;;;1.38;1.27;;;20.60;99.90;;;;;;5048298;28;20546;-72
2021/08/17 00:19:10;;;;;;;1.50;1.40;;;20.70;99.90;;;;;;5047939;28;20236;-72
2021/08/17 00:21:39;;;;;;;1.42;1.33;;;20.70;99.90;;;;;;5049022;28;20259;-73
2021/08/17 00:24:06;;;;;;;1.75;1.35;;;20.60;99.90;;;;;;5046594;28;20201;-72
2021/08/17 00:26:33;;;;;;;1.40;1.30;;;20.50;99.90;;;;;;5047178;28;20302;-72
2021/08/17 00:29:00;;;;;;;1.88;1.65;;;20.50;99.90;;;;;;5049141;28;20597;-72
2021/08/17 00:31:26;;;;;;;1.35;1.25;;;20.40;99.90;;;;;;5046712;28;20201;-72
2021/08/17 00:33:53;;;;;;;1.30;1.20;;;20.40;99.90;;;;;;5047617;28;20198;-74
2021/08/17 00:36:20;;;;;;;1.33;1.23;;;20.40;99.90;;;;;;5049095;28;20290;-74
2021/08/17 00:38:49;;;;;;;1.40;1.17;;;20.40;99.90;;;;;;5045774;28;20197;-72
2021/08/17 00:41:17;;;;;;;1.20;1.20;;;20.40;99.90;;;;;;5048175;28;20635;-73
2021/08/17 00:43:43;;;;;;;1.13;1.10;;;20.40;99.90;;;;;;5048112;28;20206;-72
2021/08/17 00:46:10;;;;;;;1.05;1.05;;;20.40;99.90;;;;;;5046838;28;20205;-73
2021/08/17 00:48:37;;;;;;;1.20;1.10;;;20.40;99.90;;;;;;5048710;28;20198;-73
2021/08/17 00:51:04;;;;;;;1.05;0.95;;;20.40;99.90;;;;;;5049383;28;20271;-73
2021/08/17 00:53:33;;;;;;;1.10;1.05;;;20.40;99.90;;;;;;5045090;28;20642;-73
2021/08/17 00:56:01;;;;;;;1.25;1.10;;;20.40;99.90;;;;;;5050344;28;20630;-73
2021/08/17 00:58:28;;;;;;;1.20;1.20;;;20.30;99.90;;;;;;5048691;28;20212;-73
2021/08/17 01:00:56;;;;;;;1.15;1.10;;;20.30;99.90;;;;;;5046965;28;20233;-73
2021/08/17 01:03:23;;;;;;;1.38;1.27;;;20.30;99.90;;;;;;5048499;28;20665;-72
2021/08/17 01:05:51;;;;;;;1.00;1.00;;;20.30;99.90;;;;;;5048351;28;20255;-73
2021/08/17 01:08:18;;;;;;;0.90;0.90;;;20.30;99.90;;;;;;5046920;28;20605;-73
2021/08/17 01:10:45;;;;;;;1.50;1.33;;;20.20;99.90;;;;;;5048191;28;20665;-73
2021/08/17 01:13:13;;;;;;;1.30;1.23;;;20.10;99.90;;;;;;5046530;28;20288;-73
2021/08/17 01:15:40;;;;;;;1.38;1.10;;;20.10;99.90;;;;;;5048098;28;20208;-72
2021/08/17 01:18:07;;;;;;;1.55;1.45;;;20.10;99.90;;;;;;5048008;28;20619;-73
2021/08/17 01:20:37;;;;;;;1.08;0.98;;;20.10;99.90;;;;;;5048832;28;20225;-72
2021/08/17 01:23:04;;;;;;;1.17;1.08;;;20.10;99.90;;;;;;5046438;28;20316;-73
2021/08/17 01:25:35;;;;;;;1.17;1.15;;;20.10;99.90;;;;;;5046367;28;20259;-73
2021/08/17 01:28:02;;;;;;;0.95;0.95;;;20.10;99.90;;;;;;5048173;28;20229;-73
2021/08/17 01:30:29;;;;;;;1.08;1.08;;;20.10;99.90;;;;;;5046893;28;20292;-73
2021/08/17 01:32:56;;;;;;;1.10;1.10;;;20.00;99.90;;;;;;5047432;28;20267;-73
2021/08/17 01:35:24;;;;;;;1.20;1.20;;;20.00;99.90;;;;;;5048291;28;20240;-73
2021/08/17 01:37:51;;;;;;;0.90;0.90;;;20.00;99.90;;;;;;5046626;28;20660;-73
2021/08/17 01:40:18;;;;;;;1.40;1.10;;;20.00;99.90;;;;;;5047940;28;20221;-73
2021/08/17 01:42:48;;;;;;;1.13;1.13;;;20.00;99.90;;;;;;5046094;28;20205;-73
2021/08/17 01:45:17;;;;;;;1.42;1.20;;;20.00;99.90;;;;;;5047638;28;20201;-73
2021/08/17 01:47:44;;;;;;;1.15;1.13;;;20.00;99.90;;;;;;5046080;28;20206;-73
2021/08/17 01:50:12;;;;;;;1.00;1.00;;;20.00;99.90;;;;;;5048411;28;20194;-73
2021/08/17 01:52:39;;;;;;;0.95;0.95;;;19.90;99.90;;;;;;5045257;28;20205;-74
2021/08/17 01:55:08;;;;;;;1.15;1.15;;;19.90;99.90;;;;;;5048425;28;20691;-73
2021/08/17 01:57:35;;;;;;;1.15;1.08;;;19.90;99.90;;;;;;5047788;28;20275;-73
2021/08/17 02:00:05;;;;;;;0.93;0.93;;;19.90;99.90;;;;;;5053832;28;20225;-73
2021/08/17 02:02:32;;;;;;;1.10;1.10;;;19.90;99.90;;;;;;5063078;28;20553;-73
2021/08/17 02:04:59;;;;;;;0.98;0.98;;;19.80;99.90;;;;;;5047801;28;20205;-73
2021/08/17 02:07:26;;;;;;;1.00;1.00;;;19.80;99.90;;;;;;5034541;28;20615;-73
2021/08/17 02:09:53;;;;;;;1.40;1.00;;;19.80;99.90;;;;;;5046289;28;20206;-73
2021/08/17 02:12:20;;;;;;;0.95;0.95;;;19.70;99.90;;;;;;5047112;28;20256;-73
2021/08/17 02:14:47;;;;;;;0.68;0.68;;;19.70;99.90;;;;;;5046693;28;20252;-73
2021/08/17 02:17:15;;;;;;;0.80;0.80;;;19.70;99.90;;;;;;5047928;28;20273;-73
2021/08/17 02:19:42;;;;;;;0.85;0.85;;;19.70;99.90;;;;;;5047608;28;20225;-73
2021/08/17 02:22:09;;;;;;;0.85;0.80;;;19.70;99.90;;;;;;5051462;28;20229;-73
2021/08/17 02:24:37;;;;;;;0.82;0.82;;;19.60;99.90;;;;;;5053728;28;20730;-73
2021/08/17 02:27:05;;;;;;;0.80;0.70;;;19.60;99.90;;;;;;5051567;28;20277;-73
2021/08/17 02:29:31;;;;;;;0.80;0.80;;;19.60;99.90;;;;;;5050903;28;20190;-73
2021/08/17 02:31:58;;;;;;;0.70;0.70;;;19.60;99.90;;;;;;5050526;28;20210;-73
2021/08/17 02:34:26;;;;;;;2.15;0.90;;;19.60;99.90;;;;;;5049172;28;20673;-73
2021/08/17 02:36:53;;;;;;;0.63;0.63;;;19.50;99.90;;;;;;5050372;28;20209;-73
2021/08/17 02:39:20;;;;;;;0.50;0.50;;;19.40;99.90;;;;;;5049029;28;20252;-73
2021/08/17 02:41:47;;;;;;;0.60;0.60;;;19.40;99.90;;;;;;5051673;28;20846;-73
2021/08/17 02:44:14;;;;;;;0.80;0.80;;;19.40;99.90;;;;;;5049822;28;20202;-73
2021/08/17 02:46:42;;;;;;;0.70;0.70;;;19.40;99.90;;;;;;5048030;28;20198;-73
2021/08/17 02:49:09;;;;;;;0.90;0.90;;;19.40;99.90;;;;;;5049266;28;20198;-73
2021/08/17 02:51:37;;;;;;;0.80;0.80;;;19.30;99.90;;;;;;5049907;28;20194;-73
2021/08/17 02:54:04;;;;;;;0.93;0.90;;;19.30;99.90;;;;;;5048700;28;20289;-73
2021/08/17 02:56:31;;;;;;;0.88;0.70;;;19.20;99.90;;;;;;5046107;28;20195;-73
2021/08/17 02:58:58;;;;;;;0.80;0.80;;;19.10;99.90;;;;;;5050394;28;20586;-73
2021/08/17 03:01:25;;;;;;;0.95;0.90;;;19.10;99.90;;;;;;5039397;28;20264;-73
2021/08/17 03:03:52;;;;;;;0.90;0.90;;;19.00;99.90;;;;;;5049125;28;20210;-73
2021/08/17 03:06:19;;;;;;;1.30;0.95;;;18.90;99.90;;;;;;5050340;28;20206;-75
2021/08/17 03:08:47;;;;;;;0.95;0.95;;;18.90;99.90;;;;;;5049000;28;20198;-75
2021/08/17 03:11:14;;;;;;;0.98;0.98;;;18.80;99.90;;;;;;5055469;28;20210;-74
2021/08/17 03:13:41;;;;;;;0.90;0.90;;;18.70;99.90;;;;;;5050257;28;20197;-75
2021/08/17 03:16:08;;;;;;;1.15;0.93;;;18.60;99.90;;;;;;5048713;28;20358;-75
2021/08/17 03:18:35;;;;;;;1.23;1.00;;;18.50;99.90;;;;;;5048620;28;20198;-75
2021/08/17 03:21:02;;;;;;;1.10;0.90;;;18.50;99.90;;;;;;5050517;28;20256;-75
2021/08/17 03:23:29;;;;;;;1.30;0.90;;;18.50;99.90;;;;;;5048115;28;20240;-75
2021/08/17 03:25:57;;;;;;;1.05;0.93;;;18.50;99.90;;;;;;5048058;28;20224;-75
2021/08/17 03:28:25;;;;;;;1.15;1.05;;;18.40;99.90;;;;;;5048584;28;20208;-75
2021/08/17 03:30:52;;;;;;;1.05;1.00;;;18.40;99.90;;;;;;5048614;28;20251;-75
2021/08/17 03:33:19;;;;;;;0.90;0.90;;;18.40;99.90;;;;;;5047719;28;20192;-75
2021/08/17 03:35:47;;;;;;;1.00;1.00;;;18.30;99.90;;;;;;5050210;28;20219;-76
2021/08/17 03:38:13;;;;;;;1.05;0.95;;;18.30;99.90;;;;;;5048650;28;20522;-75
2021/08/17 03:40:41;;;;;;;1.45;1.30;;;18.20;99.90;;;;;;5050040;28;20290;-73
2021/08/17 03:43:09;;;;;;;1.15;1.00;;;18.20;99.90;;;;;;5045622;28;20203;-74
2021/08/17 03:45:36;;;;;;;0.80;0.80;;;18.20;99.90;;;;;;5047575;28;20231;-76
2021/08/17 03:48:03;;;;;;;0.90;0.90;;;18.20;99.90;;;;;;5049472;28;20208;-75
2021/08/17 03:50:30;;;;;;;0.93;0.88;;;18.20;99.90;;;;;;5049845;28;20663;-75
2021/08/17 03:52:57;;;;;;;1.10;1.00;;;18.20;99.90;;;;;;5048034;28;20201;-75
2021/08/17 03:55:24;;;;;;;0.90;0.90;;;18.20;99.90;;;;;;5044662;28;20222;-75
2021/08/17 03:57:51;;;;;;;1.00;1.00;;;18.10;99.90;;;;;;5048980;28;20204;-75
2021/08/17 04:00:25;;;;;;;1.27;1.17;;;18.10;99.90;;;;;;5053448;28;20323;-75
2021/08/17 04:02:52;;;;;;;1.00;0.90;;;18.10;99.90;;;;;;5048271;28;20301;-74
2021/08/17 04:05:19;;;;;;;1.27;0.87;;;18.10;99.90;;;;;;5047225;28;20204;-74
2021/08/17 04:07:46;;;;;;;0.90;0.90;;;18.00;99.90;;;;;;5046037;28;20207;-74
2021/08/17 04:10:13;;;;;;;1.13;1.00;;;18.00;99.90;;;;;;5048951;28;20208;-75
2021/08/17 04:12:41;;;;;;;0.87;0.87;;;18.00;99.90;;;;;;5047670;28;20236;-74
2021/08/17 04:15:09;;;;;;;0.83;0.80;;;18.00;99.90;;;;;;5048412;28;20296;-74
2021/08/17 04:17:39;;;;;;;0.75;0.75;;;17.90;99.90;;;;;;5048763;28;20203;-74
2021/08/17 04:20:07;;;;;;;0.70;0.70;;;17.90;99.90;;;;;;5044816;28;20229;-74
2021/08/17 04:22:35;;;;;;;1.07;1.07;;;17.90;99.90;;;;;;5048023;28;20232;-74
2021/08/17 04:25:02;;;;;;;0.80;0.80;;;18.00;99.90;;;;;;5047870;28;20215;-75
2021/08/17 04:27:29;;;;;;;0.70;0.70;;;17.90;99.90;;;;;;5048886;28;20254;-74
2021/08/17 04:29:56;;;;;;;1.05;0.98;;;17.90;99.90;;;;;;5047148;28;20200;-74
2021/08/17 04:32:22;;;;;;;0.80;0.80;;;17.90;99.90;;;;;;5047867;28;20794;-75
2021/08/17 04:34:51;;;;;;;0.93;0.93;;;17.90;99.90;;;;;;5047244;28;20255;-74
2021/08/17 04:37:18;;;;;;;1.05;0.85;;;17.90;99.90;;;;;;5048433;28;20201;-74
2021/08/17 04:39:44;;;;;;;1.00;0.90;;;17.90;99.90;;;;;;5045368;28;20202;-74
2021/08/17 04:42:11;;;;;;;0.80;0.80;;;17.80;99.90;;;;;;5047678;28;20644;-74
2021/08/17 04:44:38;;;;;;;1.42;1.10;;;17.80;99.90;;;;;;5047724;28;20271;-74
2021/08/17 04:47:05;;;;;;;0.90;0.90;;;17.80;99.90;;;;;;5048422;28;20191;-75
2021/08/17 04:49:32;;;;;;;2.25;1.80;;;17.80;99.90;;;;;;5048441;28;20210;-74
2021/08/17 04:52:01;;;;;;;3.13;2.20;;;17.80;99.90;;;;;;5048188;28;20221;-74
2021/08/17 04:54:27;;;;;;;3.33;1.70;;;17.80;99.90;;;;;;5044053;28;20216;-74
2021/08/17 04:56:54;;;;;;;2.92;2.20;;;17.80;99.90;;;;;;5051614;28;20277;-75
2021/08/17 04:59:21;;;;;;;2.27;1.90;;;17.70;99.90;;;;;;5047677;28;20604;-74
2021/08/17 05:01:49;;;;;;;1.60;1.50;;;17.70;99.90;;;;;;5048331;28;20649;-75
2021/08/17 05:04:16;;;;;;;2.10;1.42;;;17.70;99.90;;;;;;5048464;28;20193;-74
2021/08/17 05:06:43;;;;;;;1.30;1.20;;;17.70;99.90;;;;;;5047810;28;20201;-75
2021/08/17 05:09:11;;;;;;;1.43;1.40;;;17.70;99.90;;;;;;5046264;28;20278;-75
2021/08/17 05:11:38;;;;;;;1.75;1.65;;;17.70;99.90;;;;;;5052219;28;20690;-75
2021/08/17 05:14:07;;;;;;;1.83;1.73;;;17.70;99.90;;;;;;5046772;28;20228;-74
2021/08/17 05:16:33;;;;;;;1.83;1.73;;;17.70;99.90;;;;;;5047560;28;20247;-74
2021/08/17 05:19:00;;;;;;;1.60;1.50;;;17.70;99.90;;;;;;5046228;28;20620;-75
2021/08/17 05:21:27;;;;;;;1.47;1.37;;;17.70;99.90;;;;;;5048160;28;20227;-75
2021/08/17 05:23:56;;;;;;;1.57;1.20;;;17.60;99.90;;;;;;5047082;28;20207;-75
2021/08/17 05:26:24;;;;;;;1.20;1.10;;;17.60;99.90;;;;;;5046306;28;20616;-75
2021/08/17 05:28:51;;;;;;;2.00;1.90;;;17.60;99.90;;;;;;5048394;28;20203;-75
2021/08/17 05:31:18;;;;;;;2.30;1.90;;;17.60;99.90;;;;;;5047771;28;20208;-74
2021/08/17 05:33:45;;;;;;;1.53;1.43;;;17.60;99.90;;;;;;5048381;28;20187;-75
2021/08/17 05:36:11;;;;;;;1.50;1.40;;;17.60;99.90;;;;;;5046313;28;20543;-74
2021/08/17 05:38:38;;;;;;;2.23;2.03;;;17.70;99.90;;;;;;5046307;28;20634;-75
2021/08/17 05:41:05;;;;;;;3.83;2.40;;;17.80;99.90;;;;;;5047421;28;20687;-74
2021/08/17 05:43:33;;;;;;;1.60;1.50;;;17.90;99.90;;;;;;5046440;28;20294;-74
2021/08/17 05:46:03;;;;;;;2.13;1.93;;;17.90;99.90;;;;;;5046004;28;20242;-74
2021/08/17 05:48:30;;;;;;;1.83;1.73;;;18.10;99.90;;;;;;5047918;28;20191;-75
2021/08/17 05:50:57;;;;;;;1.70;1.60;;;18.20;99.90;;;;;;5048221;28;20192;-75
2021/08/17 05:53:24;;;;;;;3.53;1.50;;;18.40;99.90;;;;;;5046159;28;20622;-75
2021/08/17 05:55:51;;;;;;;1.58;1.48;;;18.70;99.90;;;;;;5048555;28;20204;-75
2021/08/17 05:58:17;;;;;;;1.17;1.15;;;18.90;99.90;;;;;;5051027;28;20273;-74
2021/08/17 06:00:46;;;;;;;1.50;1.25;;;19.40;99.90;;;;;;5051654;28;20308;-74
2021/08/17 06:03:13;;;;;;;1.75;1.35;;;20.00;99.90;;;;;;5051964;28;20197;-74
2021/08/17 06:05:39;;;;;;;1.65;1.40;;;20.50;99.80;;;;;;5050509;28;20216;-74
2021/08/17 06:08:07;;;;;;;2.53;2.10;;;20.80;98.80;;;;;;5049349;28;20201;-75
2021/08/17 06:10:33;;;;;;;5.45;3.35;;;21.50;97.20;;;;;;5049707;28;20308;-75
2021/08/17 06:13:00;;;;;;;3.05;2.40;;;22.30;95.50;;;;;;5051840;28;20198;-75
2021/08/17 06:15:27;;;;;;;2.38;1.70;;;22.90;93.10;;;;;;5051280;28;20194;-74
2021/08/17 06:18:01;;;;;;;2.30;1.30;;;23.60;92.00;;;;;;5051082;28;20673;-75
2021/08/17 06:20:29;;;;;;;4.20;1.92;;;24.10;90.10;;;;;;5052194;28;20274;-75
2021/08/17 06:22:56;;;;;;;1.60;1.45;;;24.50;86.00;;;;;;5049423;28;20610;-75
2021/08/17 06:25:23;;;;;;;1.63;1.50;;;24.70;84.60;;;;;;5051190;28;20609;-75
2021/08/17 06:27:50;;;;;;;4.55;3.03;;;24.90;82.20;;;;;;5050579;28;20201;-75
2021/08/17 06:30:17;;;;;;;2.60;1.88;;;25.10;79.30;;;;;;5051275;28;20236;-75
2021/08/17 06:32:44;;;;;;;3.15;1.90;;;25.20;77.20;;;;;;5051040;28;20201;-74
2021/08/17 06:35:12;;;;;;;1.42;1.33;;;25.10;76.50;;;;;;5050225;28;20205;-75
2021/08/17 06:37:39;;;;;;;2.22;1.52;;;24.80;75.60;;;;;;5048278;28;20300;-75
2021/08/17 06:40:08;;;;;;;1.45;1.35;;;24.50;75.30;;;;;;5065684;28;20197;-73
2021/08/17 06:42:35;;;;;;;3.35;1.20;;;24.00;75.90;;;;;;5049650;28;20241;-74
2021/08/17 06:45:03;;;;;;;1.40;1.30;;;23.40;76.90;;;;;;5066648;28;20206;-75
2021/08/17 06:47:29;;;;;;;1.35;1.25;;;22.90;77.70;;;;;;5050704;28;20194;-74
2021/08/17 06:49:56;;;;;;;1.70;1.60;;;22.40;78.50;;;;;;5050812;28;20209;-74
2021/08/17 06:52:24;;;;;;;1.63;1.52;;;22.00;79.10;;;;;;5049043;28;20241;-74
2021/08/17 06:54:51;;;;;;;1.50;1.40;;;21.80;80.50;;;;;;5049228;28;20210;-74
2021/08/17 06:57:18;;;;;;;1.48;1.38;;;21.60;81.40;;;;;;5046380;28;20193;-74
2021/08/17 06:59:45;;;;;;;3.08;1.63;;;21.40;81.90;;;;;;5049607;28;20187;-74
2021/08/17 07:02:12;;;;;;;1.52;1.35;;;21.30;82.10;;;;;;5048667;28;20749;-75
2021/08/17 07:04:39;;;;;;;1.73;1.30;;;21.20;82.70;;;;;;5050515;28;20209;-75
2021/08/17 07:07:06;;;;;;;1.20;1.10;;;21.10;83.10;;;;;;5046378;28;20259;-74
2021/08/17 07:09:34;;;;;;;1.77;1.27;;;21.00;83.30;;;;;;5039548;28;20637;-74
2021/08/17 07:12:01;;;;;;;0.98;0.98;;;21.10;83.40;;;;;;5045167;28;20212;-74
2021/08/17 07:14:28;;;;;;;1.75;1.65;;;21.20;83.10;;;;;;5045441;28;20323;-73
2021/08/17 07:16:55;;;;;;;1.60;1.50;;;21.20;83.20;;;;;;5045831;28;20213;-75
2021/08/17 07:19:22;;;;;;;1.73;1.20;;;21.10;83.20;;;;;;5044200;28;20198;-74
2021/08/17 07:21:49;;;;;;;1.83;1.30;;;21.00;83.30;;;;;;5045660;28;20229;-74
2021/08/17 07:24:16;;;;;;;1.00;1.00;;;20.90;83.60;;;;;;5042085;28;20610;-74
2021/08/17 07:26:44;;;;;;;0.93;0.93;;;20.80;83.60;;;;;;5045015;28;20592;-74
2021/08/17 07:29:11;;;;;;;2.03;1.92;;;20.60;84.00;;;;;;5044812;28;20221;-74
2021/08/17 07:31:38;;;;;;;1.67;1.55;;;20.50;84.50;;;;;;5061318;28;20209;-73
2021/08/17 07:34:06;;;;;;;2.22;1.42;;;20.40;84.90;;;;;;5046616;28;20263;-72
2021/08/17 07:36:35;;;;;;;2.33;1.35;;;20.30;85.10;;;;;;5046499;28;20522;-73
2021/08/17 07:39:03;;;;;;;4.05;1.45;;;20.30;85.70;;;;;;5042942;28;20212;-73
2021/08/17 07:41:30;;;;;;;1.65;1.55;;;20.40;85.90;;;;;;5037617;28;20206;-73
2021/08/17 07:43:58;;;;;;;1.60;1.50;;;20.60;85.50;;;;;;5040257;28;20264;-73
2021/08/17 07:46:25;;;;;;;0.90;0.90;;;20.80;84.70;;;;;;5044897;28;20193;-74
2021/08/17 07:48:53;;;;;;;1.95;1.00;;;21.00;84.10;;;;;;5037725;28;20202;-73
2021/08/17 07:51:20;;;;;;;2.35;1.00;;;21.40;83.50;;;;;;5040753;28;20230;-74
2021/08/17 07:53:47;;;;;;;1.75;1.50;;;22.00;82.50;;;;;;5044754;28;20217;-73
2021/08/17 07:56:14;;;;;;;1.58;1.13;;;22.30;80.70;;;;;;5045264;28;20558;-74
2021/08/17 07:58:41;;;;;;;0.93;0.93;;;22.20;80.20;;;;;;5060836;28;20228;-73
2021/08/17 08:01:11;;;;;;;0.98;0.90;;;22.00;80.20;;;;;;5043634;28;20205;-73
2021/08/17 08:03:40;;;;;;;0.82;0.82;;;22.10;80.20;;;;;;5043912;28;20627;-73
2021/08/17 08:06:07;;;;;;;1.52;1.05;;;22.40;79.30;;;;;;5046598;28;20201;-74
2021/08/17 08:08:34;;;;;;;2.25;1.00;;;22.80;78.70;;;;;;5042235;28;20201;-74
2021/08/17 08:11:02;;;;;;;1.05;1.05;;;23.30;77.20;;;;;;5041315;28;20201;-73
2021/08/17 08:13:29;;;;;;;2.53;1.20;;;23.60;74.60;;;;;;5041829;28;20578;-74
2021/08/17 08:15:56;;;;;;;1.40;1.30;;;23.90;73.30;;;;;;5043810;28;20489;-72
2021/08/17 08:18:27;;;;;;;0.80;0.80;;;23.70;72.70;;;;;;5041291;28;20689;-72
2021/08/17 08:20:54;;;;;;;2.28;1.05;;;23.80;72.50;;;;;;5057871;28;20229;-72
2021/08/17 08:23:21;;;;;;;1.55;1.25;;;23.70;72.10;;;;;;5038948;28;20509;-73
2021/08/17 08:25:48;;;;;;;1.17;1.10;;;23.80;72.20;;;;;;5057067;28;20194;-72
2021/08/17 08:28:15;;;;;;;1.45;1.15;;;24.20;70.40;;;;;;5043663;28;20594;-72
2021/08/17 08:30:42;;;;;;;1.20;1.00;;;24.40;69.00;;;;;;5044513;28;20202;-73
2021/08/17 08:33:08;;;;;;;1.42;1.13;;;24.30;68.20;;;;;;5044968;28;20216;-72
2021/08/17 08:35:37;;;;;;;5.45;1.10;;;24.10;69.00;;;;;;5043467;28;20202;-73
2021/08/17 08:38:04;;;;;;;2.05;0.95;;;24.10;69.50;;;;;;5042476;28;21026;-73
2021/08/17 08:40:31;;;;;;;2.30;1.00;;;24.10;69.70;;;;;;5043409;28;20186;-73
2021/08/17 08:42:58;;;;;;;1.95;1.08;;;26.00;67.60;;;;;;5045042;28;20222;-72
2021/08/17 08:45:25;;;;;;;1.20;1.15;;;28.70;61.10;;;;;;5044821;28;20204;-72
2021/08/17 08:47:52;;;;;;;1.50;1.40;;;30.80;56.90;;;;;;5043711;28;20198;-75
2021/08/17 08:50:19;;;;;;;1.75;1.20;;;31.10;53.40;;;;;;5051458;28;20209;-73
2021/08/17 08:52:47;;;;;;;1.10;1.10;;;30.30;51.90;;;;;;5044657;28;20190;-74
2021/08/17 08:55:14;;;;;;;1.38;1.27;;;29.20;52.60;;;;;;5046428;28;20204;-67
2021/08/17 08:57:42;;;;;;;2.20;0.95;;;28.30;52.70;;;;;;5039796;28;20626;-68
2021/08/17 09:00:10;;;;;;;1.17;1.17;;;27.70;53.30;;;;;;5045278;28;20197;-69
2021/08/17 09:02:37;;;;;;;1.00;1.00;;;28.30;53.00;;;;;;5043196;28;20218;-69
2021/08/17 09:05:05;;;;;;;0.88;0.88;;;28.70;51.50;;;;;;5045764;28;20701;-69
2021/08/17 09:07:37;;;;;;;1.25;1.15;;;28.60;51.30;;;;;;5044066;28;20554;-69
2021/08/17 09:10:08;;;;;;;0.80;0.80;;;28.10;51.80;;;;;;5041689;28;20255;-68
2021/08/17 09:12:37;;;;;;;1.00;0.90;;;27.70;52.00;;;;;;5036637;28;20229;-69
2021/08/17 09:15:10;;;;;;;0.85;0.85;;;27.40;52.00;;;;;;5045671;28;20707;-69
2021/08/17 09:17:37;;;;;;;1.67;1.10;;;27.20;52.50;;;;;;5041810;28;20260;-69
2021/08/17 09:20:06;;;;;;;0.98;0.98;;;29.00;50.90;;;;;;5043238;28;20198;-69
2021/08/17 09:22:33;;;;;;;0.70;0.70;;;30.80;48.20;;;;;;5040420;28;20233;-69
2021/08/17 09:25:02;;;;;;;2.03;0.93;;;31.90;46.30;;;;;;5042519;28;20214;-69
2021/08/17 09:27:32;;;;;;;4.43;1.17;;;32.50;45.10;;;;;;5042600;28;20511;-69
2021/08/17 09:30:07;;;;;;;1.63;0.90;;;34.00;43.60;;;;;;5039898;28;20451;-69
2021/08/17 09:32:35;;;;;;;0.90;0.90;;;35.20;41.20;;;;;;5043206;28;20193;-69
2021/08/17 09:35:04;;;;;;;1.23;1.13;;;36.50;38.90;;;;;;5058882;28;20311;-69
2021/08/17 09:37:33;;;;;;;1.20;1.10;;;37.00;37.50;;;;;;5057653;28;20195;-68
2021/08/17 09:40:01;;;;;;;1.13;1.13;;;36.70;36.90;;;;;;5035959;28;20737;-69
2021/08/17 09:42:30;;;;;;;0.95;0.95;;;36.80;36.50;;;;;;5044073;28;20648;-69
2021/08/17 09:45:14;;;;;;;0.98;0.98;;;36.80;36.10;;;;;;5041911;28;20676;-68
2021/08/17 09:47:43;;;;;;;1.00;1.00;;;35.90;36.20;;;;;;5038540;28;20202;-69
2021/08/17 09:50:23;;;;;;;1.95;1.30;;;34.80;36.50;;;;;;5043225;28;20251;-69
2021/08/17 09:53:04;;;;;;;4.47;1.50;;;33.50;36.50;;;;;;5041069;28;20661;-68
2021/08/17 09:55:31;;;;;;;0.90;0.90;;;32.40;37.50;;;;;;5040720;28;20260;-69
2021/08/17 09:58:20;;;;;;;0.85;0.85;;;31.20;38.20;;;;;;5043150;28;20252;-69
2021/08/17 10:00:47;;;;;;;0.93;0.93;;;30.30;39.70;;;;;;5042305;28;20689;-69
2021/08/17 10:03:16;;;;;;;0.82;0.82;;;29.70;40.30;;;;;;5043658;28;20217;-68
2021/08/17 10:05:43;;;;;;;0.70;0.70;;;29.30;41.00;;;;;;5042704;28;20190;-68
2021/08/17 10:08:12;;;;;;;0.85;0.80;;;29.00;41.50;;;;;;5042096;28;20190;-68
2021/08/17 10:10:40;;;;;;;0.80;0.80;;;28.60;41.80;;;;;;5042975;28;20206;-69
2021/08/17 10:13:12;;;;;;;2.67;1.20;;;28.10;42.20;;;;;;5043243;28;20186;-73
2021/08/17 10:15:39;;;;;;;0.90;0.77;;;27.60;42.80;;;;;;5043097;28;20486;-73
2021/08/17 10:18:08;;;;;;;0.85;0.85;;;27.80;43.60;;;;;;5044058;28;20210;-73
2021/08/17 10:20:38;;;;;;;1.10;1.00;;;30.20;42.20;;;;;;5042502;28;20575;-72
2021/08/17 10:23:05;;;;;;;0.60;0.60;;;32.80;39.80;;;;;;5041653;28;20311;-71
2021/08/17 10:25:44;;;;;;;1.33;0.98;;;33.70;38.30;;;;;;5041134;28;20190;-70
2021/08/17 10:28:25;;;;;;;1.00;1.00;;;34.90;37.30;;;;;;5040757;28;20390;-70
2021/08/17 10:30:52;;;;;;;1.27;1.20;;;35.50;36.20;;;;;;5040463;28;20217;-70
2021/08/17 10:33:38;;;;;;;1.20;1.10;;;35.50;35.50;;;;;;5043249;28;20275;-70
2021/08/17 10:36:06;;;;;;;1.20;1.13;;;36.30;34.70;;;;;;5044009;28;20206;-70
2021/08/17 10:38:38;;;;;;;2.15;1.20;;;36.70;33.40;;;;;;5040413;28;20506;-71
2021/08/17 10:41:07;;;;;;;1.17;1.05;;;36.50;32.60;;;;;;5041055;28;20412;-71
2021/08/17 10:44:16;;;;;;;1.13;1.00;;;37.10;32.60;;;;;;5044897;28;20300;-70
2021/08/17 10:47:04;;;;;;;1.38;1.27;;;38.30;31.80;;;;;;5045529;28;20276;-70
2021/08/17 10:49:51;;;;;;;1.30;1.30;;;39.10;30.70;;;;;;5043415;28;20197;-70
2021/08/17 10:52:36;;;;;;;1.40;1.30;;;39.70;30.50;;;;;;5046060;28;20229;-70
2021/08/17 10:55:28;;;;;;;1.48;1.40;;;39.50;30.00;;;;;;5045652;28;20227;-72
2021/08/17 10:57:58;;;;;;;1.73;1.40;;;38.40;30.00;;;;;;5043959;28;20189;-69
2021/08/17 11:00:54;;;;;;;1.43;1.10;;;37.30;30.10;;;;;;5036904;28;20458;-70
2021/08/17 11:03:56;;;;;;;2.00;1.20;;;35.70;30.90;;;;;;5045630;28;20931;-70
2021/08/17 11:06:44;;;;;;;4.00;0.80;;;34.40;32.20;;;;;;4977196;28;20211;-71
2021/08/17 11:09:13;;;;;;;1.23;1.23;;;33.50;33.30;;;;;;4976790;28;20232;-70
2021/08/17 11:11:42;;;;;;;3.20;1.40;;;32.70;34.20;;;;;;4974542;28;20216;-71
2021/08/17 11:14:12;;;;;;;0.90;0.90;;;32.10;34.70;;;;;;4974562;28;20674;-69
2021/08/17 11:16:57;;;;;;;1.00;0.90;;;31.50;35.40;;;;;;4981247;28;20471;-69
2021/08/17 11:19:28;;;;;;;1.58;0.90;;;31.80;35.80;;;;;;4975534;28;20208;-69
2021/08/17 11:21:56;;;;;;;0.85;0.85;;;32.50;35.60;;;;;;4977926;28;20267;-70
2021/08/17 11:24:26;;;;;;;3.20;0.93;;;33.60;34.80;;;;;;4980696;28;20727;-69
2021/08/17 11:26:56;;;;;;;1.38;0.93;;;34.50;33.80;;;;;;4979095;28;20218;-69
2021/08/17 11:29:26;;;;;;;1.00;1.00;;;34.50;32.90;;;;;;4965965;28;20204;-69
2021/08/17 11:31:54;;;;;;;2.30;1.20;;;34.40;33.50;;;;;;4964994;28;20204;-69
2021/08/17 11:34:24;;;;;;;1.10;1.00;;;35.00;33.10;;;;;;4975582;28;20472;-69
2021/08/17 11:36:54;;;;;;;1.23;1.20;;;35.60;32.60;;;;;;4996199;28;20443;-67
2021/08/17 11:39:23;;;;;;;1.00;0.93;;;35.90;32.10;;;;;;5050765;28;20210;-67
2021/08/17 11:41:51;;;;;;;0.90;0.90;;;36.30;32.20;;;;;;5046386;28;20229;-67
2021/08/17 11:44:19;;;;;;;1.10;1.10;;;36.70;31.90;;;;;;5043066;28;20225;-67
2021/08/17 11:46:47;;;;;;;1.33;1.30;;;37.20;31.30;;;;;;5046618;28;20198;-67
2021/08/17 11:49:21;;;;;;;1.10;1.10;;;37.20;31.00;;;;;;5043110;28;20871;-67
2021/08/17 11:51:57;;;;;;;1.23;1.13;;;37.10;30.90;;;;;;5044313;28;20670;-67
2021/08/17 11:54:25;;;;;;;1.15;1.15;;;36.60;31.30;;;;;;5037174;28;20296;-67
2021/08/17 11:56:57;;;;;;;1.23;1.08;;;35.40;31.90;;;;;;5048154;28;20663;-67
2021/08/17 11:59:24;;;;;;;1.30;1.20;;;34.00;33.10;;;;;;5045921;28;20810;-67
2021/08/17 12:01:59;;;;;;;1.10;1.10;;;33.00;34.30;;;;;;5045640;28;20213;-67
2021/08/17 12:04:26;;;;;;;0.95;0.95;;;32.00;35.40;;;;;;5045072;28;20235;-67
2021/08/17 12:07:13;;;;;;;1.52;1.30;;;31.30;36.40;;;;;;5045574;28;20760;-67
2021/08/17 12:09:43;;;;;;;1.00;1.00;;;31.70;36.70;;;;;;5043273;28;20254;-66
2021/08/17 12:12:12;;;;;;;0.80;0.80;;;32.40;36.30;;;;;;5044819;28;20288;-67
2021/08/17 12:14:40;;;;;;;0.90;0.90;;;32.20;36.30;;;;;;5043886;28;20201;-67
2021/08/17 12:17:09;;;;;;;0.90;0.90;;;31.60;37.00;;;;;;5044436;28;20443;-67
2021/08/17 12:19:44;;;;;;;2.30;0.80;;;31.00;37.70;;;;;;5043656;28;20233;-66
2021/08/17 12:22:21;;;;;;;1.50;0.90;;;30.50;38.40;;;;;;5042756;28;20237;-66
2021/08/17 12:24:51;;;;;;;1.25;1.08;;;29.70;39.10;;;;;;5041848;28;20225;-66
2021/08/17 12:27:26;;;;;;;0.73;0.73;;;29.10;40.10;;;;;;5043959;28;20202;-66
2021/08/17 12:29:54;;;;;;;1.00;0.90;;;28.60;40.90;;;;;;5044439;28;20717;-66
2021/08/17 12:32:22;;;;;;;0.80;0.80;;;28.20;41.60;;;;;;5040749;28;20441;-66
2021/08/17 12:34:51;;;;;;;1.30;0.98;;;28.00;42.30;;;;;;5042585;28;20800;-70
2021/08/17 12:37:38;;;;;;;0.80;0.80;;;27.80;42.70;;;;;;5043590;28;20565;-71
2021/08/17 12:40:11;;;;;;;1.00;0.70;;;27.50;43.00;;;;;;4940383;28;20212;-70
2021/08/17 12:42:42;;;;;;;0.63;0.63;;;27.30;43.40;;;;;;4961592;28;20303;-71
2021/08/17 12:45:14;;;;;;;0.80;0.80;;;27.10;43.80;;;;;;4956342;28;20299;-71
2021/08/17 12:47:57;;;;;;;0.80;0.80;;;26.90;44.60;;;;;;4961602;28;20565;-71
2021/08/17 12:50:25;;;;;;;0.70;0.70;;;26.70;45.20;;;;;;4960045;28;20227;-72
2021/08/17 12:52:52;;;;;;;0.75;0.75;;;26.60;45.80;;;;;;4953925;28;20287;-70
2021/08/17 12:55:23;;;;;;;0.80;0.80;;;26.60;45.90;;;;;;4959523;28;20822;-71
2021/08/17 12:57:51;;;;;;;1.58;0.90;;;26.60;46.40;;;;;;4959304;28;20914;-71